Weather at Port Colborne Airport

Public forecast

Using degrees Celsius for public forecast. Weather courtesy of forecast.io.

Closest aviation weather report (METAR) to Port Colborne Airport

Closest report is Niagara District Airport, 20.5 nm (37.9 km) NNE.

2024/05/24 00:00 (retrieved 22 minutes ago)

CYSN 240000Z 22011KT 15SM FEW060 FEW220 22/09 A2984 RMK CU1CI1 SLP106 DENSITY ALT 1300FT

Closest aviation forecast (TAF) to Port Colborne Airport

Closest forecast is Niagara District Airport, 20.5 nm (37.9 km) NNE.

2024/05/23 20:00 (retrieved 4 hours ago)

TAF CYSN 231940Z 2320/2401 23012G22KT P6SM FEW060 SCT230 BECMG 2322/2324 22012KT RMK NXT FCST BY 241300Z